sensor_id;sensor_type;location;lat;lon;timestamp;pressure;altitude;pressure_sealevel;temperature;humidity
62201;BME280;48197;42.732;27.192;2022-09-01T00:11:38;99339.91;;;20.60;78.54
62201;BME280;48197;42.732;27.192;2022-09-01T00:14:05;99338.66;;;20.62;78.63
62201;BME280;48197;42.732;27.192;2022-09-01T00:16:32;99345.34;;;20.64;78.78
62201;BME280;48197;42.732;27.192;2022-09-01T00:18:58;99338.66;;;20.62;78.76
62201;BME280;48197;42.732;27.192;2022-09-01T00:21:29;99333.53;;;20.60;78.86
62201;BME280;48197;42.732;27.192;2022-09-01T00:23:54;99338.75;;;20.67;78.60
62201;BME280;48197;42.732;27.192;2022-09-01T00:26:34;99337.50;;;20.68;78.48
62201;BME280;48197;42.732;27.192;2022-09-01T00:29:02;99333.13;;;20.67;78.76
62201;BME280;48197;42.732;27.192;2022-09-01T00:34:32;99334.22;;;20.70;78.14
62201;BME280;48197;42.732;27.192;2022-09-01T00:40:02;99329.38;;;20.70;77.67
62201;BME280;48197;42.732;27.192;2022-09-01T00:42:32;99325.50;;;20.68;77.83
62201;BME280;48197;42.732;27.192;2022-09-01T00:45:06;99322.41;;;20.66;77.59
62201;BME280;48197;42.732;27.192;2022-09-01T00:47:33;99325.50;;;20.68;77.80
62201;BME280;48197;42.732;27.192;2022-09-01T01:02:12;99318.97;;;20.47;78.48
62201;BME280;48197;42.732;27.192;2022-09-01T01:04:38;99319.75;;;20.47;78.63
62201;BME280;48197;42.732;27.192;2022-09-01T01:07:12;99315.09;;;20.44;78.54
62201;BME280;48197;42.732;27.192;2022-09-01T01:09:40;99315.56;;;20.43;78.54
62201;BME280;48197;42.732;27.192;2022-09-01T01:12:09;99315.56;;;20.43;78.34
62201;BME280;48197;42.732;27.192;2022-09-01T01:14:38;99317.31;;;20.40;78.63
62201;BME280;48197;42.732;27.192;2022-09-01T01:17:06;99322.13;;;20.39;78.71
62201;BME280;48197;42.732;27.192;2022-09-01T01:19:43;99314.50;;;20.40;78.67
62201;BME280;48197;42.732;27.192;2022-09-01T01:25:24;99314.88;;;20.33;78.98
62201;BME280;48197;42.732;27.192;2022-09-01T01:27:50;99318.66;;;20.30;79.14
62201;BME280;48197;42.732;27.192;2022-09-01T01:30:16;99315.84;;;20.30;79.15
62201;BME280;48197;42.732;27.192;2022-09-01T01:32:43;99311.19;;;20.27;79.32
62201;BME280;48197;42.732;27.192;2022-09-01T01:35:10;99307.31;;;20.24;79.58
62201;BME280;48197;42.732;27.192;2022-09-01T01:37:40;99308.28;;;20.21;79.71
62201;BME280;48197;42.732;27.192;2022-09-01T01:40:10;99302.69;;;20.21;79.84
62201;BME280;48197;42.732;27.192;2022-09-01T01:42:46;99307.53;;;20.21;79.99
62201;BME280;48197;42.732;27.192;2022-09-01T01:45:13;99309.25;;;20.18;80.18
62201;BME280;48197;42.732;27.192;2022-09-01T01:47:42;99315.06;;;20.14;80.26
62201;BME280;48197;42.732;27.192;2022-09-01T01:50:08;99316.75;;;20.12;80.63
62201;BME280;48197;42.732;27.192;2022-09-01T01:52:34;99315.69;;;20.09;80.98
62201;BME280;48197;42.732;27.192;2022-09-01T01:55:00;99312.91;;;20.09;81.01
62201;BME280;48197;42.732;27.192;2022-09-01T01:57:26;99321.59;;;20.11;80.88
62201;BME280;48197;42.732;27.192;2022-09-01T01:59:56;99315.06;;;20.14;80.82
62201;BME280;48197;42.732;27.192;2022-09-01T02:02:22;99305.84;;;20.14;80.86
62201;BME280;48197;42.732;27.192;2022-09-01T02:04:48;99305.38;;;20.15;80.68
62201;BME280;48197;42.732;27.192;2022-09-01T02:07:14;99308.28;;;20.21;80.57
62201;BME280;48197;42.732;27.192;2022-09-01T02:09:41;99302.19;;;20.23;80.38
62201;BME280;48197;42.732;27.192;2022-09-01T02:12:10;99296.00;;;20.18;80.56
62201;BME280;48197;42.732;27.192;2022-09-01T02:14:36;99290.09;;;20.16;80.75
62201;BME280;48197;42.732;27.192;2022-09-01T02:17:03;99304.13;;;20.16;80.65
62201;BME280;48197;42.732;27.192;2022-09-01T02:19:30;99303.34;;;20.16;80.69
62201;BME280;48197;42.732;27.192;2022-09-01T02:21:55;99291.53;;;20.12;80.85
62201;BME280;48197;42.732;27.192;2022-09-01T02:24:24;99298.88;;;20.09;81.03
62201;BME280;48197;42.732;27.192;2022-09-01T02:26:50;99290.47;;;20.09;81.07
62201;BME280;48197;42.732;27.192;2022-09-01T02:29:20;99291.13;;;20.04;81.34
62201;BME280;48197;42.732;27.192;2022-09-01T02:31:46;99274.94;;;19.99;81.61
62201;BME280;48197;42.732;27.192;2022-09-01T02:34:12;99280.56;;;19.99;81.59
62201;BME280;48197;42.732;27.192;2022-09-01T02:36:39;99287.31;;;19.92;81.98
62201;BME280;48197;42.732;27.192;2022-09-01T02:39:17;99285.78;;;19.91;82.06
62201;BME280;48197;42.732;27.192;2022-09-01T02:41:44;99297.47;;;19.90;82.11
62201;BME280;48197;42.732;27.192;2022-09-01T02:44:09;99291.56;;;19.88;82.19
62201;BME280;48197;42.732;27.192;2022-09-01T02:46:42;99283.91;;;19.88;82.24
62201;BME280;48197;42.732;27.192;2022-09-01T02:49:09;99269.91;;;19.88;82.27
62201;BME280;48197;42.732;27.192;2022-09-01T02:51:40;99284.22;;;19.90;82.10
62201;BME280;48197;42.732;27.192;2022-09-01T02:54:06;99275.03;;;19.90;81.98
62201;BME280;48197;42.732;27.192;2022-09-01T02:56:32;99283.16;;;19.88;82.22
62201;BME280;48197;42.732;27.192;2022-09-01T02:58:57;99285.66;;;19.86;82.27
62201;BME280;48197;42.732;27.192;2022-09-01T03:01:30;99296.78;;;19.80;82.51
62201;BME280;48197;42.732;27.192;2022-09-01T03:04:00;99284.78;;;19.79;82.60
62201;BME280;48197;42.732;27.192;2022-09-01T03:06:26;99283.03;;;19.82;82.42
62201;BME280;48197;42.732;27.192;2022-09-01T03:08:53;99290.38;;;19.79;82.56
62201;BME280;48197;42.732;27.192;2022-09-01T03:11:19;99291.94;;;19.81;82.63
62201;BME280;48197;42.732;27.192;2022-09-01T03:13:45;99290.06;;;19.77;82.79
62201;BME280;48197;42.732;27.192;2022-09-01T03:16:11;99294.63;;;19.75;82.93
62201;BME280;48197;42.732;27.192;2022-09-01T03:18:37;99277.97;;;19.71;83.01
62201;BME280;48197;42.732;27.192;2022-09-01T03:21:03;99288.84;;;19.69;83.18
62201;BME280;48197;42.732;27.192;2022-09-01T03:23:29;99286.56;;;19.68;83.26
62201;BME280;48197;42.732;27.192;2022-09-01T03:31:54;99292.09;;;19.53;83.99
62201;BME280;48197;42.732;27.192;2022-09-01T03:34:21;99287.44;;;19.50;84.36
62201;BME280;48197;42.732;27.192;2022-09-01T03:39:50;99293.03;;;19.50;84.28
62201;BME280;48197;42.732;27.192;2022-09-01T03:42:17;99295.84;;;19.50;84.41
62201;BME280;48197;42.732;27.192;2022-09-01T03:44:51;99293.53;;;19.48;84.44
62201;BME280;48197;42.732;27.192;2022-09-01T03:47:18;99302.69;;;19.49;84.42
62201;BME280;48197;42.732;27.192;2022-09-01T03:49:46;99300.66;;;19.49;84.40
62201;BME280;48197;42.732;27.192;2022-09-01T03:52:14;99311.13;;;19.49;84.41
62201;BME280;48197;42.732;27.192;2022-09-01T03:54:42;99311.13;;;19.49;84.46
62201;BME280;48197;42.732;27.192;2022-09-01T03:57:10;99309.06;;;19.49;84.55
62201;BME280;48197;42.732;27.192;2022-09-01T03:59:37;99317.03;;;19.51;84.49
62201;BME280;48197;42.732;27.192;2022-09-01T04:02:08;99319.34;;;19.52;84.30
62201;BME280;48197;42.732;27.192;2022-09-01T04:04:36;99318.09;;;19.53;84.30
62201;BME280;48197;42.732;27.192;2022-09-01T04:19:40;99318.63;;;19.67;83.59
62201;BME280;48197;42.732;27.192;2022-09-01T04:22:08;99324.09;;;19.70;83.27
62201;BME280;48197;42.732;27.192;2022-09-01T04:33:43;99317.56;;;19.88;82.51
62201;BME280;48197;42.732;27.192;2022-09-01T04:39:14;99318.88;;;20.02;81.81
62201;BME280;48197;42.732;27.192;2022-09-01T04:41:42;99316.47;;;20.10;81.48
62201;BME280;48197;42.732;27.192;2022-09-01T04:44:11;99325.31;;;20.17;81.04
62201;BME280;48197;42.732;27.192;2022-09-01T04:46:55;99317.31;;;20.25;80.46
62201;BME280;48197;42.732;27.192;2022-09-01T04:49:22;99320.00;;;20.34;79.94
62201;BME280;48197;42.732;27.192;2022-09-01T04:51:51;99326.63;;;20.46;79.34
62201;BME280;48197;42.732;27.192;2022-09-01T04:54:17;99316.53;;;20.54;79.09
62201;BME280;48197;42.732;27.192;2022-09-01T04:56:55;99327.44;;;20.62;78.51
62201;BME280;48197;42.732;27.192;2022-09-01T04:59:25;99328.41;;;20.73;77.95
62201;BME280;48197;42.732;27.192;2022-09-01T05:01:52;99332.66;;;20.84;77.34
62201;BME280;48197;42.732;27.192;2022-09-01T05:04:20;99337.41;;;20.92;77.02
62201;BME280;48197;42.732;27.192;2022-09-01T05:06:51;99341.06;;;20.98;76.59
62201;BME280;48197;42.732;27.192;2022-09-01T05:09:28;99342.53;;;21.09;76.00
62201;BME280;48197;42.732;27.192;2022-09-01T05:11:55;99349.59;;;21.19;75.22
62201;BME280;48197;42.732;27.192;2022-09-01T05:14:23;99342.38;;;21.33;74.68
62201;BME280;48197;42.732;27.192;2022-09-01T05:16:54;99352.94;;;21.38;74.58
62201;BME280;48197;42.732;27.192;2022-09-01T05:19:22;99354.09;;;21.46;73.91
62201;BME280;48197;42.732;27.192;2022-09-01T05:21:51;99360.50;;;21.47;73.49
62201;BME280;48197;42.732;27.192;2022-09-01T05:24:23;99356.53;;;21.53;73.59
62201;BME280;48197;42.732;27.192;2022-09-01T05:26:55;99368.59;;;21.74;73.23
62201;BME280;48197;42.732;27.192;2022-09-01T05:29:22;99370.81;;;21.91;72.30
62201;BME280;48197;42.732;27.192;2022-09-01T05:31:50;99364.28;;;21.99;71.44
62201;BME280;48197;42.732;27.192;2022-09-01T05:34:17;99378.28;;;22.14;71.10
62201;BME280;48197;42.732;27.192;2022-09-01T05:36:52;99376.75;;;22.34;70.56
62201;BME280;48197;42.732;27.192;2022-09-01T05:39:18;99377.19;;;22.47;70.16
62201;BME280;48197;42.732;27.192;2022-09-01T05:41:46;99377.50;;;22.55;69.20
62201;BME280;48197;42.732;27.192;2022-09-01T05:44:14;99378.69;;;22.69;68.73
62201;BME280;48197;42.732;27.192;2022-09-01T05:46:42;99382.16;;;22.84;68.58
62201;BME280;48197;42.732;27.192;2022-09-01T05:49:12;99381.84;;;23.02;67.37
62201;BME280;48197;42.732;27.192;2022-09-01T05:51:45;99391.94;;;23.15;66.80
62201;BME280;48197;42.732;27.192;2022-09-01T05:54:16;99379.03;;;23.34;66.56
62201;BME280;48197;42.732;27.192;2022-09-01T05:56:43;99388.34;;;23.46;65.86
62201;BME280;48197;42.732;27.192;2022-09-01T05:59:11;99384.63;;;23.66;64.83
62201;BME280;48197;42.732;27.192;2022-09-01T06:13:49;99378.72;;;24.07;62.38
62201;BME280;48197;42.732;27.192;2022-09-01T06:16:17;99393.38;;;24.11;62.21
62201;BME280;48197;42.732;27.192;2022-09-01T06:18:45;99384.97;;;24.34;61.49
62201;BME280;48197;42.732;27.192;2022-09-01T06:21:12;99382.97;;;24.45;60.79
62201;BME280;48197;42.732;27.192;2022-09-01T06:24:01;99386.03;;;24.42;60.83
62201;BME280;48197;42.732;27.192;2022-09-01T06:27:01;99396.66;;;24.70;60.12
62201;BME280;48197;42.732;27.192;2022-09-01T06:32:31;99391.88;;;25.21;57.92
62201;BME280;48197;42.732;27.192;2022-09-01T06:34:59;99392.59;;;25.50;56.64
62201;BME280;48197;42.732;27.192;2022-09-01T06:37:25;99387.63;;;26.01;54.45
62201;BME280;48197;42.732;27.192;2022-09-01T06:39:53;99379.84;;;26.71;53.13
62201;BME280;48197;42.732;27.192;2022-09-01T06:42:23;99389.56;;;27.53;50.69
62201;BME280;48197;42.732;27.192;2022-09-01T06:56:58;99393.41;;;29.64;45.16
62201;BME280;48197;42.732;27.192;2022-09-01T06:59:37;99393.97;;;30.56;43.10
62201;BME280;48197;42.732;27.192;2022-09-01T07:02:10;99400.03;;;30.87;42.17
62201;BME280;48197;42.732;27.192;2022-09-01T07:04:41;99391.69;;;30.76;41.65
62201;BME280;48197;42.732;27.192;2022-09-01T07:07:09;99391.78;;;31.18;40.79
62201;BME280;48197;42.732;27.192;2022-09-01T07:09:36;99398.28;;;31.68;40.02
62201;BME280;48197;42.732;27.192;2022-09-01T07:12:02;99407.31;;;32.01;39.00
62201;BME280;48197;42.732;27.192;2022-09-01T07:14:29;99409.22;;;32.42;38.08
62201;BME280;48197;42.732;27.192;2022-09-01T07:16:56;99403.06;;;32.74;38.08
62201;BME280;48197;42.732;27.192;2022-09-01T07:19:24;99413.00;;;32.37;37.37
62201;BME280;48197;42.732;27.192;2022-09-01T07:21:51;99411.41;;;32.28;38.44
62201;BME280;48197;42.732;27.192;2022-09-01T07:24:19;99402.47;;;32.68;37.64
62201;BME280;48197;42.732;27.192;2022-09-01T07:39:16;99405.47;;;30.85;39.71
62201;BME280;48197;42.732;27.192;2022-09-01T07:41:52;99405.00;;;31.07;39.62
62201;BME280;48197;42.732;27.192;2022-09-01T07:44:19;99410.53;;;31.47;38.88
62201;BME280;48197;42.732;27.192;2022-09-01T07:46:47;99413.59;;;31.78;38.65
62201;BME280;48197;42.732;27.192;2022-09-01T07:49:44;99415.44;;;32.25;37.48
62201;BME280;48197;42.732;27.192;2022-09-01T07:52:20;99419.50;;;32.45;37.49
62201;BME280;48197;42.732;27.192;2022-09-01T07:54:47;99413.91;;;32.68;37.06
62201;BME280;48197;42.732;27.192;2022-09-01T07:57:38;99412.75;;;32.64;37.08
62201;BME280;48197;42.732;27.192;2022-09-01T08:00:07;99406.50;;;32.81;36.76
62201;BME280;48197;42.732;27.192;2022-09-01T08:02:36;99414.84;;;32.63;36.83
62201;BME280;48197;42.732;27.192;2022-09-01T08:05:07;99416.38;;;32.57;36.39
62201;BME280;48197;42.732;27.192;2022-09-01T08:19:45;99406.72;;;32.90;35.65
62201;BME280;48197;42.732;27.192;2022-09-01T08:22:11;99409.34;;;32.73;36.21
62201;BME280;48197;42.732;27.192;2022-09-01T08:24:38;99405.22;;;32.45;36.44
62201;BME280;48197;42.732;27.192;2022-09-01T08:27:05;99397.41;;;32.46;36.43
62201;BME280;48197;42.732;27.192;2022-09-01T08:29:48;99402.13;;;32.87;36.10
62201;BME280;48197;42.732;27.192;2022-09-01T08:32:16;99399.81;;;32.70;36.12
62201;BME280;48197;42.732;27.192;2022-09-01T08:34:45;99397.94;;;32.96;35.94
62201;BME280;48197;42.732;27.192;2022-09-01T08:49:24;99389.59;;;33.06;35.68
62201;BME280;48197;42.732;27.192;2022-09-01T08:55:08;99381.81;;;33.68;34.74
62201;BME280;48197;42.732;27.192;2022-09-01T08:57:44;99368.22;;;33.68;34.55
62201;BME280;48197;42.732;27.192;2022-09-01T09:06:28;99364.97;;;33.41;34.47
62201;BME280;48197;42.732;27.192;2022-09-01T09:08:58;99374.16;;;33.09;35.08
62201;BME280;48197;42.732;27.192;2022-09-01T09:14:26;99361.28;;;32.71;35.62
62201;BME280;48197;42.732;27.192;2022-09-01T09:16:56;99360.50;;;32.19;36.26
62201;BME280;48197;42.732;27.192;2022-09-01T09:31:35;99352.91;;;32.81;35.07
62201;BME280;48197;42.732;27.192;2022-09-01T09:34:31;99346.78;;;32.77;35.04
62201;BME280;48197;42.732;27.192;2022-09-01T09:37:00;99348.28;;;32.55;35.82
62201;BME280;48197;42.732;27.192;2022-09-01T09:39:42;99348.34;;;32.78;35.14
62201;BME280;48197;42.732;27.192;2022-09-01T09:42:09;99340.84;;;32.60;35.12
62201;BME280;48197;42.732;27.192;2022-09-01T09:44:47;99334.94;;;32.58;35.30
62201;BME280;48197;42.732;27.192;2022-09-01T09:47:37;99339.81;;;32.42;35.19
62201;BME280;48197;42.732;27.192;2022-09-01T09:50:12;99337.84;;;32.21;36.00
62201;BME280;48197;42.732;27.192;2022-09-01T09:52:41;99347.59;;;32.33;35.42
62201;BME280;48197;42.732;27.192;2022-09-01T09:55:22;99342.47;;;33.14;34.35
62201;BME280;48197;42.732;27.192;2022-09-01T09:57:52;99333.84;;;32.91;34.68
62201;BME280;48197;42.732;27.192;2022-09-01T10:00:22;99339.19;;;33.03;34.12
62201;BME280;48197;42.732;27.192;2022-09-01T10:02:55;99332.53;;;33.46;32.55
62201;BME280;48197;42.732;27.192;2022-09-01T10:08:02;99329.66;;;33.46;32.72
62201;BME280;48197;42.732;27.192;2022-09-01T10:10:30;99327.44;;;32.47;34.14
62201;BME280;48197;42.732;27.192;2022-09-01T10:13:03;99326.34;;;31.77;34.62
62201;BME280;48197;42.732;27.192;2022-09-01T10:15:31;99330.41;;;31.53;35.00
62201;BME280;48197;42.732;27.192;2022-09-01T10:18:05;99322.19;;;32.14;34.00
62201;BME280;48197;42.732;27.192;2022-09-01T10:20:36;99320.16;;;33.21;33.24
62201;BME280;48197;42.732;27.192;2022-09-01T10:23:04;99321.56;;;33.91;31.57
62201;BME280;48197;42.732;27.192;2022-09-01T10:25:31;99319.22;;;34.05;31.21
62201;BME280;48197;42.732;27.192;2022-09-01T10:28:11;99318.22;;;34.25;30.99
62201;BME280;48197;42.732;27.192;2022-09-01T10:30:40;99322.88;;;34.46;31.11
62201;BME280;48197;42.732;27.192;2022-09-01T10:33:13;99302.69;;;33.80;32.25
62201;BME280;48197;42.732;27.192;2022-09-01T10:35:42;99306.34;;;33.58;32.03
62201;BME280;48197;42.732;27.192;2022-09-01T10:38:18;99306.94;;;33.71;31.94
62201;BME280;48197;42.732;27.192;2022-09-01T10:40:46;99303.53;;;33.04;32.70
62201;BME280;48197;42.732;27.192;2022-09-01T10:45:50;99299.19;;;32.35;33.00
62201;BME280;48197;42.732;27.192;2022-09-01T10:50:46;99294.50;;;34.57;30.75
62201;BME280;48197;42.732;27.192;2022-09-01T10:56:06;99293.38;;;35.88;28.33
62201;BME280;48197;42.732;27.192;2022-09-01T10:58:38;99294.06;;;35.79;28.45
62201;BME280;48197;42.732;27.192;2022-09-01T11:01:09;99282.22;;;35.57;28.94
62201;BME280;48197;42.732;27.192;2022-09-01T11:03:53;99294.44;;;35.23;28.86
62201;BME280;48197;42.732;27.192;2022-09-01T11:06:42;99288.63;;;34.15;30.48
62201;BME280;48197;42.732;27.192;2022-09-01T11:09:19;99285.97;;;33.30;31.97
62201;BME280;48197;42.732;27.192;2022-09-01T11:14:29;99283.69;;;32.08;33.33
62201;BME280;48197;42.732;27.192;2022-09-01T11:17:10;99286.34;;;31.69;33.84
62201;BME280;48197;42.732;27.192;2022-09-01T11:22:23;99287.97;;;31.93;33.10
62201;BME280;48197;42.732;27.192;2022-09-01T11:25:04;99266.88;;;32.94;32.40
62201;BME280;48197;42.732;27.192;2022-09-01T11:27:55;99272.97;;;34.01;30.64
62201;BME280;48197;42.732;27.192;2022-09-01T11:30:24;99267.66;;;34.70;29.60
62201;BME280;48197;42.732;27.192;2022-09-01T11:33:24;99268.84;;;35.52;28.82
62201;BME280;48197;42.732;27.192;2022-09-01T11:36:01;99272.66;;;36.34;27.50
62201;BME280;48197;42.732;27.192;2022-09-01T11:38:33;99269.72;;;36.79;26.38
62201;BME280;48197;42.732;27.192;2022-09-01T11:41:04;99266.75;;;36.59;25.73
62201;BME280;48197;42.732;27.192;2022-09-01T11:43:31;99265.88;;;35.95;26.37
62201;BME280;48197;42.732;27.192;2022-09-01T11:48:25;99271.78;;;36.69;29.71
62201;BME280;48197;42.732;27.192;2022-09-01T11:50:57;99270.59;;;36.72;30.74
62201;BME280;48197;42.732;27.192;2022-09-01T11:53:25;99272.59;;;36.79;30.57
62201;BME280;48197;42.732;27.192;2022-09-01T11:55:53;99260.78;;;36.03;32.12
62201;BME280;48197;42.732;27.192;2022-09-01T12:03:44;99258.66;;;32.83;39.29
62201;BME280;48197;42.732;27.192;2022-09-01T12:06:16;99248.38;;;32.57;39.95
62201;BME280;48197;42.732;27.192;2022-09-01T12:08:50;99259.34;;;33.76;39.59
62201;BME280;48197;42.732;27.192;2022-09-01T12:11:19;99256.50;;;34.09;38.78
62201;BME280;48197;42.732;27.192;2022-09-01T12:13:59;99262.09;;;33.35;39.87
62201;BME280;48197;42.732;27.192;2022-09-01T12:16:27;99267.84;;;32.89;41.79
62201;BME280;48197;42.732;27.192;2022-09-01T12:18:55;99270.75;;;33.91;40.15
62201;BME280;48197;42.732;27.192;2022-09-01T12:21:31;99266.88;;;34.95;37.95
62201;BME280;48197;42.732;27.192;2022-09-01T12:26:38;99268.19;;;34.44;38.59
62201;BME280;48197;42.732;27.192;2022-09-01T12:29:06;99270.84;;;33.61;39.98
62201;BME280;48197;42.732;27.192;2022-09-01T12:31:33;99278.88;;;33.54;40.62
62201;BME280;48197;42.732;27.192;2022-09-01T12:37:06;99278.97;;;34.93;37.47
62201;BME280;48197;42.732;27.192;2022-09-01T12:39:34;99275.44;;;35.63;35.88
62201;BME280;48197;42.732;27.192;2022-09-01T12:42:05;99282.91;;;35.66;34.10
62201;BME280;48197;42.732;27.192;2022-09-01T12:47:08;99277.78;;;35.56;34.27
62201;BME280;48197;42.732;27.192;2022-09-01T12:49:42;99270.03;;;35.84;33.55
62201;BME280;48197;42.732;27.192;2022-09-01T12:54:39;99265.53;;;36.35;30.27
62201;BME280;48197;42.732;27.192;2022-09-01T12:57:06;99253.84;;;36.24;28.06
62201;BME280;48197;42.732;27.192;2022-09-01T12:59:34;99256.06;;;35.98;27.86
62201;BME280;48197;42.732;27.192;2022-09-01T13:04:46;99268.88;;;35.87;30.49
62201;BME280;48197;42.732;27.192;2022-09-01T13:07:14;99272.44;;;35.18;31.97
62201;BME280;48197;42.732;27.192;2022-09-01T13:09:41;99277.16;;;34.07;35.06
62201;BME280;48197;42.732;27.192;2022-09-01T13:12:15;99293.81;;;34.01;36.94
62201;BME280;48197;42.732;27.192;2022-09-01T13:14:43;99290.25;;;34.66;36.88
62201;BME280;48197;42.732;27.192;2022-09-01T13:17:10;99295.41;;;34.68;36.31
62201;BME280;48197;42.732;27.192;2022-09-01T13:19:37;99303.00;;;34.81;34.79
62201;BME280;48197;42.732;27.192;2022-09-01T13:22:04;99297.66;;;35.02;33.56
62201;BME280;48197;42.732;27.192;2022-09-01T13:24:32;99292.66;;;34.12;35.24
62201;BME280;48197;42.732;27.192;2022-09-01T13:26:59;99288.44;;;32.88;37.94
62201;BME280;48197;42.732;27.192;2022-09-01T13:29:26;99276.53;;;32.45;36.83
62201;BME280;48197;42.732;27.192;2022-09-01T13:31:53;99269.34;;;32.67;37.63
62201;BME280;48197;42.732;27.192;2022-09-01T13:34:20;99275.31;;;33.08;38.58
62201;BME280;48197;42.732;27.192;2022-09-01T13:36:48;99275.44;;;33.48;38.20
62201;BME280;48197;42.732;27.192;2022-09-01T13:39:15;99277.91;;;33.52;38.67
62201;BME280;48197;42.732;27.192;2022-09-01T13:41:42;99285.78;;;33.13;40.11
62201;BME280;48197;42.732;27.192;2022-09-01T13:44:09;99280.31;;;32.32;41.64
62201;BME280;48197;42.732;27.192;2022-09-01T13:46:36;99282.38;;;31.80;43.01
62201;BME280;48197;42.732;27.192;2022-09-01T13:49:03;99277.41;;;31.73;43.58
62201;BME280;48197;42.732;27.192;2022-09-01T13:51:30;99277.16;;;32.00;43.62
62201;BME280;48197;42.732;27.192;2022-09-01T13:53:57;99270.00;;;32.29;43.35
62201;BME280;48197;42.732;27.192;2022-09-01T13:56:23;99266.72;;;32.10;43.77
62201;BME280;48197;42.732;27.192;2022-09-01T13:58:50;99274.09;;;31.61;44.75
62201;BME280;48197;42.732;27.192;2022-09-01T14:01:17;99266.75;;;31.45;45.39
62201;BME280;48197;42.732;27.192;2022-09-01T14:03:43;99272.59;;;31.68;45.07
62201;BME280;48197;42.732;27.192;2022-09-01T14:06:11;99279.56;;;31.51;44.97
62201;BME280;48197;42.732;27.192;2022-09-01T14:08:37;99275.03;;;31.56;45.30
62201;BME280;48197;42.732;27.192;2022-09-01T14:11:04;99273.47;;;31.47;45.50
62201;BME280;48197;42.732;27.192;2022-09-01T14:13:31;99272.50;;;31.24;46.51
62201;BME280;48197;42.732;27.192;2022-09-01T14:15:59;99269.94;;;31.12;47.57
62201;BME280;48197;42.732;27.192;2022-09-01T14:18:26;99273.38;;;31.40;46.52
62201;BME280;48197;42.732;27.192;2022-09-01T14:21:02;99282.47;;;31.59;46.76
62201;BME280;48197;42.732;27.192;2022-09-01T14:23:28;99285.03;;;31.21;47.20
62201;BME280;48197;42.732;27.192;2022-09-01T14:25:55;99295.09;;;30.93;48.21
62201;BME280;48197;42.732;27.192;2022-09-01T14:28:23;99286.72;;;31.16;48.12
62201;BME280;48197;42.732;27.192;2022-09-01T14:30:50;99280.28;;;31.44;47.02
62201;BME280;48197;42.732;27.192;2022-09-01T14:33:17;99280.53;;;31.54;46.84
62201;BME280;48197;42.732;27.192;2022-09-01T14:35:49;99275.50;;;31.18;47.33
62201;BME280;48197;42.732;27.192;2022-09-01T14:38:15;99275.47;;;30.68;48.12
62201;BME280;48197;42.732;27.192;2022-09-01T14:40:45;99277.81;;;30.57;48.52
62201;BME280;48197;42.732;27.192;2022-09-01T14:43:12;99282.75;;;30.56;48.92
62201;BME280;48197;42.732;27.192;2022-09-01T14:45:39;99290.66;;;30.50;49.05
62201;BME280;48197;42.732;27.192;2022-09-01T14:48:09;99284.00;;;29.86;50.15
62201;BME280;48197;42.732;27.192;2022-09-01T14:50:38;99281.50;;;28.97;52.51
62201;BME280;48197;42.732;27.192;2022-09-01T14:53:07;99291.00;;;28.16;54.40
62201;BME280;48197;42.732;27.192;2022-09-01T14:55:34;99298.09;;;27.66;56.27
62201;BME280;48197;42.732;27.192;2022-09-01T14:58:01;99304.53;;;27.12;58.15
62201;BME280;48197;42.732;27.192;2022-09-01T15:00:28;99303.53;;;26.79;60.09
62201;BME280;48197;42.732;27.192;2022-09-01T15:02:56;99307.00;;;26.60;60.76
62201;BME280;48197;42.732;27.192;2022-09-01T15:05:23;99307.66;;;26.42;61.71
62201;BME280;48197;42.732;27.192;2022-09-01T15:07:50;99302.31;;;26.27;62.55
62201;BME280;48197;42.732;27.192;2022-09-01T15:10:18;99308.75;;;26.27;62.72
62201;BME280;48197;42.732;27.192;2022-09-01T15:12:46;99306.44;;;26.26;62.86
62201;BME280;48197;42.732;27.192;2022-09-01T15:15:14;99298.22;;;26.22;62.83
62201;BME280;48197;42.732;27.192;2022-09-01T15:17:42;99289.50;;;26.15;63.35
62201;BME280;48197;42.732;27.192;2022-09-01T15:20:09;99295.69;;;26.13;63.32
62201;BME280;48197;42.732;27.192;2022-09-01T15:22:54;99303.16;;;26.16;63.19
62201;BME280;48197;42.732;27.192;2022-09-01T15:25:21;99306.81;;;26.05;63.75
62201;BME280;48197;42.732;27.192;2022-09-01T15:27:47;99300.66;;;26.01;63.26
62201;BME280;48197;42.732;27.192;2022-09-01T15:30:15;99305.28;;;25.99;63.37
62201;BME280;48197;42.732;27.192;2022-09-01T15:32:42;99310.47;;;25.95;63.45
62201;BME280;48197;42.732;27.192;2022-09-01T15:35:10;99305.31;;;25.87;63.68
62201;BME280;48197;42.732;27.192;2022-09-01T15:37:37;99310.22;;;25.81;63.87
62201;BME280;48197;42.732;27.192;2022-09-01T15:40:05;99306.09;;;25.82;63.98
62201;BME280;48197;42.732;27.192;2022-09-01T15:42:33;99310.47;;;25.89;63.87
62201;BME280;48197;42.732;27.192;2022-09-01T15:45:05;99307.91;;;25.91;63.94
62201;BME280;48197;42.732;27.192;2022-09-01T15:47:33;99313.03;;;25.87;64.24
62201;BME280;48197;42.732;27.192;2022-09-01T15:50:02;99325.91;;;25.82;64.34
62201;BME280;48197;42.732;27.192;2022-09-01T15:52:31;99321.56;;;25.76;64.76
62201;BME280;48197;42.732;27.192;2022-09-01T15:54:59;99315.91;;;25.70;64.73
62201;BME280;48197;42.732;27.192;2022-09-01T15:57:26;99316.97;;;25.67;65.28
62201;BME280;48197;42.732;27.192;2022-09-01T15:59:53;99314.41;;;25.63;65.60
62201;BME280;48197;42.732;27.192;2022-09-01T16:02:19;99320.59;;;25.56;65.99
62201;BME280;48197;42.732;27.192;2022-09-01T16:04:48;99316.22;;;25.50;66.52
62201;BME280;48197;42.732;27.192;2022-09-01T16:07:15;99317.78;;;25.45;66.76
62201;BME280;48197;42.732;27.192;2022-09-01T16:09:42;99318.06;;;25.41;66.97
62201;BME280;48197;42.732;27.192;2022-09-01T16:12:09;99320.13;;;25.35;67.53
62201;BME280;48197;42.732;27.192;2022-09-01T16:14:36;99318.34;;;25.21;67.89